createdAt,value
2019-02-28T00:04:21.597Z,2.20
2019-02-28T00:09:14.258Z,2.10
2019-02-28T00:14:06.985Z,2.10
2019-02-28T00:18:59.466Z,2.00
2019-02-28T00:23:56.437Z,1.90
2019-02-28T00:28:45.819Z,1.90
2019-02-28T00:33:38.371Z,1.80
2019-02-28T00:38:31.044Z,1.80
2019-02-28T00:43:25.164Z,1.80
2019-02-28T00:48:18.197Z,1.80
2019-02-28T00:53:11.363Z,1.80
2019-02-28T00:58:03.893Z,1.70
2019-02-28T01:02:57.985Z,1.50
2019-02-28T01:07:50.226Z,1.40
2019-02-28T01:12:42.943Z,1.30
2019-02-28T01:17:35.500Z,1.30
2019-02-28T01:22:28.148Z,1.40
2019-02-28T01:27:21.794Z,1.40
2019-02-28T01:32:15.774Z,1.30
2019-02-28T01:37:08.568Z,1.20
2019-02-28T01:42:20.876Z,1.20
2019-02-28T01:53:06.651Z,1.20
2019-02-28T01:57:59.204Z,1.10
2019-02-28T02:02:52.261Z,0.90
2019-02-28T02:07:44.723Z,0.80
2019-02-28T02:12:37.351Z,0.80
2019-02-28T02:17:32.281Z,0.80
2019-02-28T02:22:23.766Z,0.80
2019-02-28T02:27:19.225Z,0.70
2019-02-28T02:32:10.207Z,0.70
2019-02-28T02:37:02.485Z,0.70
2019-02-28T02:41:54.797Z,0.70
2019-02-28T02:46:47.426Z,0.70
2019-02-28T02:51:49.095Z,0.60
2019-02-28T02:56:40.647Z,0.60
2019-02-28T03:01:28.426Z,0.70
2019-02-28T03:06:20.899Z,0.70
2019-02-28T03:11:13.251Z,0.70
2019-02-28T03:16:05.608Z,0.60
2019-02-28T03:20:57.930Z,0.50
2019-02-28T03:25:50.407Z,0.40
2019-02-28T03:30:43.072Z,0.30
2019-02-28T03:35:43.192Z,0.30
2019-02-28T03:40:29.702Z,0.30
2019-02-28T03:45:22.204Z,0.20
2019-02-28T03:50:15.142Z,0.20
2019-02-28T03:55:09.600Z,0.10
2019-02-28T04:00:01.986Z,0.20
2019-02-28T04:04:54.634Z,0.20
2019-02-28T04:09:47.155Z,0.20
2019-02-28T04:14:39.450Z,0.20
2019-02-28T04:19:32.186Z,0.20
2019-02-28T04:24:24.826Z,0.20
2019-02-28T04:29:17.101Z,0.30
2019-02-28T04:34:12.987Z,0.20
2019-02-28T04:39:06.084Z,0.20
2019-02-28T04:43:58.792Z,0.10
2019-02-28T04:48:51.260Z,0.20
2019-02-28T04:53:43.496Z,0.20
2019-02-28T04:58:36.087Z,0.10
2019-02-28T05:03:29.198Z,0.10
2019-02-28T05:08:22.025Z,0.10
2019-02-28T05:13:15.006Z,0.20
2019-02-28T05:18:07.157Z,0.20
2019-02-28T05:23:02.699Z,0.10
2019-02-28T05:27:53.370Z,0.10
2019-02-28T05:32:45.821Z,0.00
2019-02-28T05:37:38.404Z,0.00
2019-02-28T05:42:50.586Z,0.00
2019-02-28T05:47:46.823Z,0.00
2019-02-28T05:52:36.985Z,0.00
2019-02-28T05:57:29.660Z,0.00
2019-02-28T06:02:22.543Z,0.00
2019-02-28T06:07:16.748Z,0.00
2019-02-28T06:12:09.570Z,0.00
2019-02-28T06:17:02.740Z,0.00
2019-02-28T06:21:56.444Z,0.10
2019-02-28T06:26:49.378Z,0.20
2019-02-28T06:31:41.728Z,0.20
2019-02-28T06:36:34.438Z,0.20
2019-02-28T06:41:26.475Z,0.20
2019-02-28T06:46:19.149Z,0.20
2019-02-28T06:51:11.572Z,0.40
2019-02-28T06:56:04.276Z,0.60
2019-02-28T07:00:56.856Z,0.90
2019-02-28T07:05:49.210Z,1.50
2019-02-28T07:10:41.617Z,2.20
2019-02-28T07:15:34.340Z,3.40
2019-02-28T07:20:27.001Z,4.80
2019-02-28T07:25:19.656Z,6.10
2019-02-28T07:30:19.759Z,7.40
2019-02-28T07:35:12.316Z,8.10
2019-02-28T07:40:08.221Z,9.00
2019-02-28T07:45:00.788Z,10.30
2019-02-28T07:49:53.176Z,11.10
2019-02-28T07:54:47.529Z,11.80
2019-02-28T07:59:42.410Z,12.50
2019-02-28T08:04:33.796Z,13.10
2019-02-28T08:09:28.412Z,14.00
2019-02-28T08:14:21.068Z,14.50
2019-02-28T08:19:13.692Z,15.10
2019-02-28T08:24:06.415Z,15.80
2019-02-28T08:28:59.041Z,16.80
2019-02-28T08:33:51.770Z,17.40
2019-02-28T08:38:44.474Z,18.10
2019-02-28T08:43:37.017Z,18.80
2019-02-28T08:48:32.462Z,19.60
2019-02-28T08:53:23.265Z,20.20
2019-02-28T08:58:15.795Z,21.00
2019-02-28T09:03:08.365Z,21.60
2019-02-28T09:08:01.024Z,20.90
2019-02-28T09:12:53.634Z,20.50
2019-02-28T09:17:46.070Z,19.10
2019-02-28T09:22:38.966Z,18.10
2019-02-28T09:27:31.536Z,17.90
2019-02-28T09:32:23.949Z,17.40
2019-02-28T09:37:16.587Z,17.20
2019-02-28T09:42:12.282Z,19.60
2019-02-28T09:47:03.150Z,22.70
2019-02-28T09:51:55.665Z,25.20
2019-02-28T09:56:48.292Z,27.00
2019-02-28T10:01:42.483Z,28.00
2019-02-28T10:06:34.716Z,28.30
2019-02-28T10:11:31.207Z,28.50
2019-02-28T10:16:21.385Z,28.50
2019-02-28T10:21:14.175Z,28.80
2019-02-28T10:26:06.472Z,29.40
2019-02-28T10:30:58.992Z,29.80
2019-02-28T10:35:51.448Z,29.40
2019-02-28T10:40:43.853Z,29.20
2019-02-28T10:45:41.134Z,29.50
2019-02-28T10:50:33.476Z,30.80
2019-02-28T10:55:26.094Z,30.80
2019-02-28T11:00:22.261Z,29.80
2019-02-28T11:05:23.434Z,29.70
2019-02-28T11:10:16.466Z,30.50
2019-02-28T11:15:10.441Z,30.40
2019-02-28T11:20:06.099Z,30.50
2019-02-28T11:25:01.035Z,30.70
2019-02-28T11:29:52.521Z,31.10
2019-02-28T11:34:45.776Z,31.50
2019-02-28T11:39:38.998Z,31.70
2019-02-28T11:44:31.624Z,31.80
2019-02-28T11:49:25.573Z,32.10
2019-02-28T11:54:18.332Z,32.20
2019-02-28T11:59:10.960Z,31.10
2019-02-28T12:04:03.287Z,30.90
2019-02-28T12:08:55.985Z,30.60
2019-02-28T12:13:51.613Z,30.10
2019-02-28T12:18:42.975Z,29.30
2019-02-28T12:23:35.397Z,28.60
2019-02-28T12:28:27.980Z,28.50
2019-02-28T12:33:23.168Z,28.60
2019-02-28T12:38:14.904Z,28.90
2019-02-28T12:43:09.734Z,28.60
2019-02-28T12:48:02.279Z,28.30
2019-02-28T12:52:54.733Z,27.10
2019-02-28T12:57:47.202Z,26.30
2019-02-28T13:02:43.523Z,26.30
2019-02-28T13:07:34.620Z,25.10
2019-02-28T13:12:27.374Z,23.80
2019-02-28T13:17:20.076Z,22.90
2019-02-28T13:22:12.906Z,22.00
2019-02-28T13:27:09.773Z,21.10
2019-02-28T13:32:01.477Z,20.40
2019-02-28T13:37:00.569Z,20.20
2019-02-28T13:41:47.540Z,21.10
2019-02-28T13:46:40.240Z,21.40
2019-02-28T13:51:40.684Z,21.00
2019-02-28T13:56:29.038Z,20.00
2019-02-28T14:01:20.742Z,19.30
2019-02-28T14:06:18.950Z,19.10
2019-02-28T14:11:10.275Z,18.80
2019-02-28T14:16:02.009Z,18.10
2019-02-28T14:20:54.425Z,17.70
2019-02-28T14:25:47.205Z,17.60
2019-02-28T14:30:39.790Z,17.20
2019-02-28T14:35:35.179Z,16.80
2019-02-28T14:40:26.140Z,16.60
2019-02-28T14:45:23.837Z,16.30
2019-02-28T14:50:18.938Z,15.90
2019-02-28T14:55:12.825Z,15.60
2019-02-28T15:00:11.128Z,15.30
2019-02-28T15:05:04.061Z,15.00
2019-02-28T15:09:58.926Z,14.70
2019-02-28T15:14:50.921Z,14.40
2019-02-28T15:19:45.115Z,14.10
2019-02-28T15:24:40.493Z,14.00
2019-02-28T15:29:31.481Z,13.90
2019-02-28T15:34:23.782Z,13.80
2019-02-28T15:39:17.104Z,13.70
2019-02-28T15:44:10.249Z,13.60
2019-02-28T15:49:03.197Z,13.50
2019-02-28T15:53:55.581Z,13.40
2019-02-28T15:58:47.945Z,13.30
2019-02-28T16:03:40.345Z,13.20
2019-02-28T16:08:33.033Z,13.10
2019-02-28T16:13:25.769Z,13.00
2019-02-28T16:18:18.568Z,12.90
2019-02-28T16:23:11.035Z,12.90
2019-02-28T16:28:07.235Z,12.70
2019-02-28T16:32:58.501Z,12.60
2019-02-28T16:37:50.814Z,12.60
2019-02-28T16:42:46.416Z,12.50
2019-02-28T16:47:37.638Z,12.50
2019-02-28T16:52:30.370Z,12.40
2019-02-28T16:57:22.642Z,12.30
2019-02-28T17:02:15.357Z,12.30
2019-02-28T17:07:09.552Z,12.20
2019-02-28T17:12:03.637Z,12.10
2019-02-28T17:17:08.723Z,12.00
2019-02-28T17:22:01.435Z,12.00
2019-02-28T17:27:06.230Z,11.90
2019-02-28T17:31:58.973Z,11.80
2019-02-28T17:36:51.634Z,11.70
2019-02-28T17:41:44.298Z,11.70
2019-02-28T17:46:36.940Z,11.60
2019-02-28T17:51:32.309Z,11.60
2019-02-28T17:56:45.933Z,11.60
2019-02-28T18:01:47.793Z,11.60
2019-02-28T18:07:04.797Z,11.50
2019-02-28T18:12:35.390Z,11.50
2019-02-28T18:17:36.765Z,11.50
2019-02-28T18:22:41.041Z,11.50
2019-02-28T18:27:39.294Z,11.40
2019-02-28T18:32:33.290Z,11.40
2019-02-28T18:37:26.081Z,11.40
2019-02-28T18:42:19.130Z,11.40
2019-02-28T18:47:12.408Z,11.30
2019-02-28T18:52:05.268Z,11.30
2019-02-28T18:56:57.905Z,11.30
2019-02-28T19:01:50.322Z,11.20
2019-02-28T19:06:43.062Z,11.10
2019-02-28T19:11:35.840Z,11.00
2019-02-28T19:16:28.209Z,11.00
2019-02-28T19:21:20.618Z,10.90
2019-02-28T19:26:13.525Z,10.80
2019-02-28T19:31:06.973Z,10.80
2019-02-28T19:35:59.573Z,10.70
2019-02-28T19:40:52.113Z,10.70
2019-02-28T19:45:48.180Z,10.70
2019-02-28T19:50:40.972Z,10.80
2019-02-28T19:55:33.664Z,10.70
2019-02-28T20:00:26.203Z,10.70
2019-02-28T20:05:18.580Z,10.70
2019-02-28T20:10:13.986Z,10.60
2019-02-28T20:15:09.178Z,10.60
2019-02-28T20:20:01.938Z,10.60
2019-02-28T20:24:54.473Z,10.60
2019-02-28T20:29:54.905Z,10.60
2019-02-28T20:34:41.513Z,10.60
2019-02-28T20:39:33.979Z,10.60
2019-02-28T20:44:26.604Z,10.60
2019-02-28T20:49:19.297Z,10.60
2019-02-28T20:54:11.796Z,10.60
2019-02-28T20:59:04.557Z,10.50
2019-02-28T21:03:56.848Z,10.30
2019-02-28T21:08:49.513Z,10.20
2019-02-28T21:13:41.847Z,10.00
2019-02-28T21:18:34.418Z,9.80
2019-02-28T21:23:26.973Z,9.70
2019-02-28T21:28:19.748Z,9.60
2019-02-28T21:33:12.445Z,9.50
2019-02-28T21:38:04.881Z,9.50
2019-02-28T21:42:57.641Z,9.40
2019-02-28T21:47:50.645Z,9.40
2019-02-28T21:52:43.439Z,9.30
2019-02-28T21:57:36.123Z,9.30
2019-02-28T22:02:28.429Z,9.20
2019-02-28T22:07:20.657Z,9.20
2019-02-28T22:12:13.156Z,9.30
2019-02-28T22:17:05.677Z,9.30
2019-02-28T22:21:58.245Z,9.30
2019-02-28T22:26:50.646Z,9.30
2019-02-28T22:31:50.985Z,9.30
2019-02-28T22:36:43.605Z,9.30
2019-02-28T22:41:36.374Z,9.20
2019-02-28T22:46:28.830Z,9.20
2019-02-28T22:51:21.401Z,9.10
2019-02-28T22:56:13.885Z,9.00
2019-02-28T23:01:18.633Z,8.90
2019-02-28T23:06:11.083Z,8.90
2019-02-28T23:11:04.086Z,8.90
2019-02-28T23:15:56.549Z,8.90
2019-02-28T23:20:49.424Z,9.00
2019-02-28T23:25:41.760Z,9.00
2019-02-28T23:30:58.402Z,9.10
2019-02-28T23:35:51.791Z,9.10
2019-02-28T23:40:44.183Z,9.20
2019-02-28T23:45:36.469Z,9.20
2019-02-28T23:50:29.070Z,9.20
2019-02-28T23:55:21.676Z,9.20
